createdAt,value
2019-05-07T00:02:28.549Z,17.04
2019-05-07T00:05:02.514Z,17.04
2019-05-07T00:07:33.502Z,17.04
2019-05-07T00:10:05.855Z,16.96
2019-05-07T00:12:37.629Z,16.98
2019-05-07T00:15:09.485Z,17.03
2019-05-07T00:17:42.883Z,17.00
2019-05-07T00:20:14.395Z,16.82
2019-05-07T00:22:45.833Z,16.87
2019-05-07T00:25:17.120Z,16.91
2019-05-07T00:27:48.501Z,16.80
2019-05-07T00:30:22.395Z,16.88
2019-05-07T00:32:53.939Z,16.62
2019-05-07T00:35:26.870Z,16.73
2019-05-07T00:38:02.895Z,16.72
2019-05-07T00:40:38.459Z,16.73
2019-05-07T00:43:12.081Z,16.78
2019-05-07T00:45:57.104Z,16.84
2019-05-07T00:48:28.650Z,16.78
2019-05-07T00:51:02.329Z,16.74
2019-05-07T00:53:33.321Z,16.72
2019-05-07T00:56:04.651Z,16.61
2019-05-07T00:58:36.501Z,16.57
2019-05-07T01:01:08.153Z,16.62
2019-05-07T01:03:39.708Z,16.68
2019-05-07T01:06:12.874Z,16.66
2019-05-07T01:08:44.716Z,16.65
2019-05-07T01:11:15.992Z,16.64
2019-05-07T01:13:47.383Z,16.46
2019-05-07T01:16:18.702Z,16.52
2019-05-07T01:18:50.462Z,16.45
2019-05-07T01:21:22.724Z,16.40
2019-05-07T01:23:54.463Z,16.55
2019-05-07T01:26:25.890Z,16.60
2019-05-07T01:29:03.045Z,16.44
2019-05-07T01:31:35.919Z,16.51
2019-05-07T01:34:09.151Z,16.41
2019-05-07T01:36:42.612Z,16.29
2019-05-07T01:39:13.699Z,16.27
2019-05-07T01:41:45.145Z,16.46
2019-05-07T01:44:16.484Z,16.35
2019-05-07T01:46:47.813Z,16.37
2019-05-07T01:49:19.494Z,16.36
2019-05-07T01:51:52.997Z,16.43
2019-05-07T01:54:24.092Z,16.43
2019-05-07T01:56:58.712Z,16.46
2019-05-07T01:59:32.155Z,16.57
2019-05-07T02:02:04.928Z,16.62
2019-05-07T02:04:42.718Z,16.59
2019-05-07T02:07:16.789Z,16.59
2019-05-07T02:09:51.796Z,16.58
2019-05-07T02:12:28.087Z,16.56
2019-05-07T02:15:02.483Z,16.63
2019-05-07T02:17:33.571Z,16.68
2019-05-07T02:20:06.741Z,16.76
2019-05-07T02:22:38.103Z,16.70
2019-05-07T02:25:09.745Z,16.46
2019-05-07T02:27:42.135Z,16.60
2019-05-07T02:30:14.801Z,16.58
2019-05-07T02:32:46.585Z,16.52
2019-05-07T02:35:18.164Z,16.62
2019-05-07T02:37:55.629Z,16.44
2019-05-07T02:40:33.932Z,16.43
2019-05-07T02:43:04.470Z,16.54
2019-05-07T02:45:43.769Z,16.67
2019-05-07T02:48:14.577Z,16.50
2019-05-07T02:50:47.754Z,16.53
2019-05-07T02:53:33.783Z,16.61
2019-05-07T02:56:06.133Z,16.53
2019-05-07T02:58:37.444Z,16.40
2019-05-07T03:01:08.845Z,16.55
2019-05-07T03:03:40.137Z,16.70
2019-05-07T03:06:13.573Z,16.79
2019-05-07T03:08:44.717Z,16.80
2019-05-07T03:11:16.200Z,16.74
2019-05-07T03:13:47.568Z,16.74
2019-05-07T03:16:37.422Z,16.87
2019-05-07T03:18:53.271Z,17.10
2019-05-07T03:21:24.800Z,16.97
2019-05-07T03:23:58.884Z,16.87
2019-05-07T03:26:34.167Z,16.89
2019-05-07T03:29:06.695Z,17.15
2019-05-07T03:32:05.484Z,17.27
2019-05-07T03:34:37.759Z,17.34
2019-05-07T03:37:13.621Z,17.30
2019-05-07T03:39:43.933Z,17.39
2019-05-07T03:42:15.749Z,17.49
2019-05-07T03:44:54.708Z,17.48
2019-05-07T03:47:33.171Z,17.23
2019-05-07T03:50:05.653Z,17.40
2019-05-07T03:52:37.603Z,17.49
2019-05-07T03:55:09.324Z,17.41
2019-05-07T03:57:43.599Z,17.30
2019-05-07T04:00:14.114Z,17.27
2019-05-07T04:02:45.865Z,17.37
2019-05-07T04:05:17.384Z,17.40
2019-05-07T04:07:48.888Z,17.46
2019-05-07T04:10:23.169Z,17.66
2019-05-07T04:12:53.577Z,17.78
2019-05-07T04:15:24.989Z,17.83
2019-05-07T04:17:56.661Z,17.91
2019-05-07T04:20:28.141Z,17.63
2019-05-07T04:22:59.887Z,17.79
2019-05-07T04:25:34.612Z,17.64
2019-05-07T04:28:14.258Z,17.57
2019-05-07T04:30:45.747Z,17.78
2019-05-07T04:33:19.131Z,18.00
2019-05-07T04:35:53.810Z,17.44
2019-05-07T04:38:25.411Z,17.72
2019-05-07T04:40:57.276Z,17.94
2019-05-07T04:43:29.021Z,18.06
2019-05-07T04:46:03.139Z,18.36
2019-05-07T04:48:34.786Z,18.41
2019-05-07T04:51:07.870Z,18.48
2019-05-07T04:53:42.672Z,18.44
2019-05-07T04:56:14.025Z,18.54
2019-05-07T04:58:45.696Z,18.72
2019-05-07T05:01:19.246Z,18.68
2019-05-07T05:03:53.214Z,18.68
2019-05-07T05:06:24.341Z,18.67
2019-05-07T05:08:56.547Z,18.89
2019-05-07T05:11:28.023Z,18.96
2019-05-07T05:14:02.569Z,19.05
2019-05-07T05:16:33.023Z,19.12
2019-05-07T05:19:04.876Z,19.43
2019-05-07T05:21:41.990Z,19.38
2019-05-07T05:24:15.256Z,19.60
2019-05-07T05:26:46.720Z,19.87
2019-05-07T05:29:19.161Z,20.10
2019-05-07T05:31:52.737Z,20.13
2019-05-07T05:34:23.827Z,19.80
2019-05-07T05:36:55.539Z,19.79
2019-05-07T05:39:27.412Z,19.73
2019-05-07T05:42:03.366Z,19.96
2019-05-07T05:44:35.258Z,19.66
2019-05-07T05:47:06.863Z,19.65
2019-05-07T05:49:38.577Z,19.78
2019-05-07T05:52:23.891Z,19.86
2019-05-07T05:54:57.748Z,19.91
2019-05-07T05:57:32.260Z,19.43
2019-05-07T06:00:17.857Z,19.86
2019-05-07T06:02:53.224Z,19.81
2019-05-07T06:05:44.626Z,20.11
2019-05-07T06:08:26.917Z,20.31
2019-05-07T06:11:02.992Z,20.76
2019-05-07T06:13:39.461Z,21.23
2019-05-07T06:16:12.645Z,22.91
2019-05-07T06:18:45.728Z,24.09
2019-05-07T06:21:23.978Z,25.55
2019-05-07T06:24:02.969Z,26.28
2019-05-07T06:26:35.005Z,27.71
2019-05-07T06:29:07.143Z,27.49
2019-05-07T06:31:38.755Z,27.64
2019-05-07T06:34:12.415Z,28.82
2019-05-07T06:36:43.806Z,28.40
2019-05-07T06:39:18.242Z,30.92
2019-05-07T06:41:54.541Z,31.20
2019-05-07T06:44:26.457Z,32.78
2019-05-07T06:46:58.002Z,32.15
2019-05-07T06:49:29.555Z,32.88
2019-05-07T06:52:02.995Z,32.66
2019-05-07T06:54:34.747Z,34.09
2019-05-07T06:57:06.472Z,33.74
2019-05-07T06:59:39.560Z,34.68
2019-05-07T07:02:29.021Z,34.35
2019-05-07T07:05:02.979Z,31.47
2019-05-07T07:07:37.476Z,31.81
2019-05-07T07:10:25.804Z,32.30
2019-05-07T07:12:57.762Z,32.83
2019-05-07T07:15:31.932Z,32.26
2019-05-07T07:18:03.166Z,35.10
2019-05-07T07:20:34.571Z,34.53
2019-05-07T07:23:06.326Z,34.37
2019-05-07T07:25:38.092Z,33.67
2019-05-07T07:28:12.156Z,33.01
2019-05-07T07:30:57.368Z,34.41
2019-05-07T07:33:33.941Z,31.90
2019-05-07T07:36:05.314Z,32.76
2019-05-07T07:38:37.560Z,31.67
2019-05-07T07:41:12.728Z,30.89
2019-05-07T07:43:44.351Z,31.35
2019-05-07T07:46:16.629Z,32.75
2019-05-07T07:49:03.186Z,32.75
2019-05-07T07:51:37.202Z,31.38
2019-05-07T07:53:55.427Z,31.38
2019-05-07T07:56:48.424Z,32.83
2019-05-07T07:59:09.234Z,31.07
2019-05-07T08:02:01.845Z,31.22
2019-05-07T08:04:33.547Z,34.40
2019-05-07T08:07:05.189Z,34.58
2019-05-07T08:09:36.947Z,36.13
2019-05-07T08:12:12.538Z,35.54
2019-05-07T08:14:42.962Z,38.24
2019-05-07T08:17:14.100Z,37.53
2019-05-07T08:19:46.030Z,35.81
2019-05-07T08:22:17.695Z,34.53
2019-05-07T08:24:51.672Z,36.01
2019-05-07T08:27:22.946Z,36.49
2019-05-07T08:29:54.624Z,36.24
2019-05-07T08:32:34.050Z,37.61
2019-05-07T08:35:24.535Z,38.50
2019-05-07T08:37:56.501Z,39.46
2019-05-07T08:40:28.174Z,37.46
2019-05-07T08:42:59.810Z,40.88
2019-05-07T08:45:52.574Z,39.40
2019-05-07T08:48:28.762Z,40.59
2019-05-07T08:51:02.513Z,36.09
2019-05-07T08:53:33.869Z,38.40
2019-05-07T08:56:05.931Z,39.50
2019-05-07T08:58:37.928Z,38.53
2019-05-07T09:01:11.913Z,36.75
2019-05-07T09:03:43.629Z,37.12
2019-05-07T09:06:15.541Z,36.73
2019-05-07T09:08:46.887Z,35.08
2019-05-07T09:11:18.823Z,34.96
2019-05-07T09:13:52.445Z,35.48
2019-05-07T09:16:23.722Z,35.01
2019-05-07T09:18:55.447Z,35.39
2019-05-07T09:21:27.413Z,34.59
2019-05-07T09:23:59.017Z,35.20
2019-05-07T09:26:38.725Z,33.16
2019-05-07T09:29:24.080Z,34.59
2019-05-07T09:32:17.154Z,32.14
2019-05-07T09:35:02.144Z,31.05
2019-05-07T09:37:33.986Z,31.76
2019-05-07T09:40:07.881Z,33.38
2019-05-07T09:42:39.632Z,30.86
2019-05-07T09:45:12.077Z,31.97
2019-05-07T09:47:43.803Z,33.93
2019-05-07T09:50:15.730Z,34.45
2019-05-07T09:52:47.874Z,36.86
2019-05-07T09:55:19.362Z,36.55
2019-05-07T09:57:52.753Z,37.20
2019-05-07T10:00:26.057Z,37.46
2019-05-07T10:02:56.998Z,36.98
2019-05-07T10:05:28.565Z,35.82
2019-05-07T10:08:01.884Z,35.13
2019-05-07T10:10:33.372Z,35.98
2019-05-07T10:13:06.562Z,35.17
2019-05-07T10:15:37.528Z,35.94
2019-05-07T10:18:13.682Z,34.07
2019-05-07T10:20:46.747Z,31.76
2019-05-07T10:23:22.985Z,33.36
2019-05-07T10:25:54.677Z,32.51
2019-05-07T10:28:26.427Z,29.81
2019-05-07T10:30:58.227Z,29.23
2019-05-07T10:33:31.998Z,28.76
2019-05-07T10:36:03.851Z,30.46
2019-05-07T10:38:35.968Z,31.23
2019-05-07T10:41:07.469Z,29.75
2019-05-07T10:43:39.350Z,30.86
2019-05-07T10:46:24.665Z,30.38
2019-05-07T10:48:57.959Z,29.45
2019-05-07T10:51:29.183Z,28.92
2019-05-07T10:54:02.292Z,27.98
2019-05-07T10:56:35.547Z,28.53
2019-05-07T10:59:07.646Z,28.58
2019-05-07T11:01:43.763Z,28.18
2019-05-07T11:04:16.177Z,28.65
2019-05-07T11:06:47.770Z,29.20
2019-05-07T11:09:21.741Z,28.55
2019-05-07T11:11:53.050Z,28.65
2019-05-07T11:14:24.802Z,28.36
2019-05-07T11:16:57.882Z,28.27
2019-05-07T11:19:29.458Z,27.93
2019-05-07T11:22:00.878Z,27.95
2019-05-07T11:24:32.947Z,27.97
2019-05-07T11:27:04.651Z,28.16
2019-05-07T11:29:36.704Z,27.16
2019-05-07T11:32:08.529Z,27.06
2019-05-07T11:34:42.217Z,27.52
2019-05-07T11:37:13.736Z,27.78
2019-05-07T11:39:45.483Z,27.59
2019-05-07T11:42:22.075Z,27.19
2019-05-07T11:44:55.038Z,27.02
2019-05-07T11:47:31.862Z,26.86
2019-05-07T11:50:22.590Z,26.37
2019-05-07T11:53:01.593Z,26.59
2019-05-07T11:55:33.956Z,26.48
2019-05-07T11:58:05.342Z,26.41
2019-05-07T12:00:38.508Z,26.46
2019-05-07T12:03:10.067Z,26.55
2019-05-07T12:05:42.246Z,26.54
2019-05-07T12:08:13.783Z,26.08
2019-05-07T12:10:45.345Z,25.87
2019-05-07T12:13:17.091Z,25.82
2019-05-07T12:15:49.163Z,25.55
2019-05-07T12:18:22.696Z,25.58
2019-05-07T12:20:57.319Z,25.53
2019-05-07T12:23:28.795Z,25.64
2019-05-07T12:26:02.263Z,25.85
2019-05-07T12:28:34.223Z,25.83
2019-05-07T12:31:07.291Z,25.80
2019-05-07T12:33:49.182Z,25.85
2019-05-07T12:36:22.771Z,25.78
2019-05-07T12:38:53.743Z,25.83
2019-05-07T12:41:33.645Z,25.67
2019-05-07T12:44:06.667Z,25.64
2019-05-07T12:46:38.416Z,25.88
2019-05-07T12:49:11.976Z,26.12
2019-05-07T12:51:58.375Z,26.21
2019-05-07T12:54:44.203Z,26.63
2019-05-07T12:57:16.877Z,26.57
2019-05-07T12:59:49.699Z,26.68
2019-05-07T13:02:44.233Z,27.00
2019-05-07T13:05:14.964Z,27.14
2019-05-07T13:07:48.218Z,27.28
2019-05-07T13:10:21.916Z,27.27
2019-05-07T13:12:53.440Z,27.25
2019-05-07T13:15:27.976Z,27.20
2019-05-07T13:17:59.822Z,27.20
2019-05-07T13:20:32.922Z,27.18
2019-05-07T13:23:04.796Z,27.34
2019-05-07T13:25:39.303Z,27.27
2019-05-07T13:28:11.868Z,27.04
2019-05-07T13:30:45.165Z,27.04
2019-05-07T13:33:20.149Z,27.00
2019-05-07T13:35:55.904Z,26.71
2019-05-07T13:38:34.348Z,26.54
2019-05-07T13:41:08.989Z,26.39
2019-05-07T13:44:02.906Z,26.28
2019-05-07T13:46:39.785Z,26.14
2019-05-07T13:49:12.525Z,26.05
2019-05-07T13:51:44.115Z,25.98
2019-05-07T13:54:16.240Z,25.70
2019-05-07T13:56:50.005Z,25.65
2019-05-07T13:59:22.322Z,25.75
2019-05-07T14:02:04.533Z,25.71
2019-05-07T14:04:34.538Z,25.54
2019-05-07T14:07:06.016Z,25.40
2019-05-07T14:09:37.528Z,25.24
2019-05-07T14:12:09.010Z,25.21
2019-05-07T14:14:42.572Z,25.14
2019-05-07T14:17:13.465Z,25.10
2019-05-07T14:19:44.816Z,24.99
2019-05-07T14:22:18.992Z,24.89
2019-05-07T14:24:49.341Z,24.78
2019-05-07T14:27:20.720Z,24.80
2019-05-07T14:29:52.353Z,24.77
2019-05-07T14:32:25.229Z,24.66
2019-05-07T14:35:12.276Z,24.72
2019-05-07T14:37:45.000Z,24.71
2019-05-07T14:40:16.576Z,24.53
2019-05-07T14:42:55.483Z,24.37
2019-05-07T14:45:27.275Z,24.28
2019-05-07T14:47:59.273Z,24.01
2019-05-07T14:50:32.965Z,23.79
2019-05-07T14:53:05.790Z,23.62
2019-05-07T14:55:41.855Z,23.46
2019-05-07T14:58:14.347Z,23.34
2019-05-07T15:00:46.459Z,23.06
2019-05-07T15:03:18.869Z,22.92
2019-05-07T15:05:52.512Z,22.89
2019-05-07T15:08:23.327Z,22.85
2019-05-07T15:10:55.184Z,22.92
2019-05-07T15:13:26.585Z,22.88
2019-05-07T15:16:00.234Z,22.99
2019-05-07T15:18:52.923Z,23.03
2019-05-07T15:21:24.779Z,23.05
2019-05-07T15:23:56.222Z,23.09
2019-05-07T15:26:27.887Z,22.58
2019-05-07T15:29:00.855Z,22.13
2019-05-07T15:31:36.684Z,21.70
2019-05-07T15:34:08.101Z,21.24
2019-05-07T15:36:39.532Z,21.14
2019-05-07T15:39:13.273Z,20.98
2019-05-07T15:41:44.387Z,20.72
2019-05-07T15:44:16.055Z,20.38
2019-05-07T15:46:47.932Z,20.15
2019-05-07T15:49:19.313Z,20.08
2019-05-07T15:51:53.118Z,19.95
2019-05-07T15:54:24.713Z,19.82
2019-05-07T15:56:58.885Z,19.61
2019-05-07T15:59:30.577Z,19.59
2019-05-07T16:02:13.030Z,19.47
2019-05-07T16:04:44.402Z,19.38
2019-05-07T16:07:16.098Z,19.20
2019-05-07T16:09:47.553Z,19.11
2019-05-07T16:12:22.731Z,18.95
2019-05-07T16:14:54.336Z,18.83
2019-05-07T16:17:33.813Z,18.80
2019-05-07T16:20:06.370Z,18.75
2019-05-07T16:22:39.474Z,18.76
2019-05-07T16:25:11.723Z,18.74
2019-05-07T16:27:43.304Z,18.72
2019-05-07T16:30:14.810Z,18.65
2019-05-07T16:32:46.532Z,18.42
2019-05-07T16:35:18.005Z,18.33
2019-05-07T16:37:49.696Z,18.38
2019-05-07T16:40:22.947Z,18.35
2019-05-07T16:42:55.710Z,18.30
2019-05-07T16:45:27.204Z,18.22
2019-05-07T16:48:01.129Z,18.18
2019-05-07T16:50:33.475Z,18.08
2019-05-07T16:53:05.256Z,18.03
2019-05-07T16:55:37.293Z,17.95
2019-05-07T16:58:12.359Z,17.87
2019-05-07T17:00:45.442Z,17.73
2019-05-07T17:03:18.215Z,17.58
2019-05-07T17:05:49.428Z,17.50
2019-05-07T17:08:22.587Z,17.49
2019-05-07T17:10:53.978Z,17.38
2019-05-07T17:13:25.511Z,17.43
2019-05-07T17:15:57.927Z,17.41
2019-05-07T17:18:34.461Z,17.39
2019-05-07T17:21:06.289Z,17.26
2019-05-07T17:23:44.103Z,17.13
2019-05-07T17:26:11.710Z,17.17
2019-05-07T17:28:44.023Z,17.14
2019-05-07T17:31:15.998Z,17.09
2019-05-07T17:33:51.557Z,17.09
2019-05-07T17:36:22.798Z,17.13
2019-05-07T17:38:54.932Z,16.97
2019-05-07T17:41:27.473Z,16.94
2019-05-07T17:44:03.677Z,16.83
2019-05-07T17:46:39.486Z,16.79
2019-05-07T17:49:12.466Z,16.82
2019-05-07T17:51:44.740Z,16.78
2019-05-07T17:54:16.796Z,16.87
2019-05-07T17:56:48.836Z,16.99
2019-05-07T17:59:22.908Z,17.11
2019-05-07T18:01:58.020Z,17.14
2019-05-07T18:04:36.529Z,17.18
2019-05-07T18:07:05.635Z,17.20
2019-05-07T18:09:37.556Z,17.17
2019-05-07T18:12:11.915Z,17.08
2019-05-07T18:14:45.750Z,16.85
2019-05-07T18:17:22.589Z,16.83
2019-05-07T18:19:54.977Z,16.80
2019-05-07T18:22:26.710Z,16.80
2019-05-07T18:24:59.067Z,16.69
2019-05-07T18:27:32.840Z,16.67
2019-05-07T18:30:04.234Z,16.67
2019-05-07T18:32:38.011Z,16.72
2019-05-07T18:35:12.661Z,16.72
2019-05-07T18:37:53.384Z,16.72
2019-05-07T18:40:25.349Z,16.59
2019-05-07T18:42:56.987Z,16.58
2019-05-07T18:45:29.033Z,16.57
2019-05-07T18:48:02.457Z,16.57
2019-05-07T18:50:34.388Z,16.43
2019-05-07T18:53:06.164Z,16.57
2019-05-07T18:55:39.796Z,16.52
2019-05-07T18:58:13.379Z,16.46
2019-05-07T19:00:51.921Z,16.45
2019-05-07T19:03:25.778Z,16.49
2019-05-07T19:05:57.938Z,16.55
2019-05-07T19:08:32.269Z,16.48
2019-05-07T19:11:05.786Z,16.50
2019-05-07T19:13:38.756Z,16.42
2019-05-07T19:16:12.548Z,16.43
2019-05-07T19:18:43.837Z,16.45
2019-05-07T19:21:15.379Z,16.39
2019-05-07T19:23:47.277Z,16.35
2019-05-07T19:26:21.320Z,16.35
2019-05-07T19:28:53.922Z,16.36
2019-05-07T19:31:27.272Z,16.41
2019-05-07T19:33:59.548Z,16.37
2019-05-07T19:36:32.211Z,16.34
2019-05-07T19:39:05.655Z,16.39
2019-05-07T19:41:39.200Z,16.34
2019-05-07T19:44:12.722Z,16.19
2019-05-07T19:46:44.424Z,16.04
2019-05-07T19:49:16.011Z,16.03
2019-05-07T19:51:47.933Z,16.01
2019-05-07T19:54:22.618Z,15.96
2019-05-07T19:56:53.617Z,15.85
2019-05-07T19:59:25.039Z,15.84
2019-05-07T20:01:58.121Z,15.85
2019-05-07T20:04:29.581Z,15.76
2019-05-07T20:07:02.822Z,15.83
2019-05-07T20:09:36.223Z,15.97
2019-05-07T20:12:08.177Z,16.02
2019-05-07T20:14:42.079Z,16.09
2019-05-07T20:17:13.164Z,16.02
2019-05-07T20:19:44.598Z,15.98
2019-05-07T20:22:16.145Z,16.02
2019-05-07T20:24:47.492Z,15.92
2019-05-07T20:27:19.025Z,15.85
2019-05-07T20:29:52.257Z,15.80
2019-05-07T20:32:25.127Z,15.77
2019-05-07T20:34:56.620Z,15.73
2019-05-07T20:37:28.213Z,15.66
2019-05-07T20:39:59.579Z,15.63
2019-05-07T20:42:32.822Z,15.64
2019-05-07T20:45:05.563Z,15.77
2019-05-07T20:47:36.972Z,15.81
2019-05-07T20:50:08.935Z,15.85
2019-05-07T20:52:41.852Z,15.94
2019-05-07T20:55:28.133Z,15.94
2019-05-07T20:57:54.078Z,16.00
2019-05-07T21:00:29.231Z,16.02
2019-05-07T21:03:18.698Z,15.97
2019-05-07T21:05:53.002Z,15.96
2019-05-07T21:08:24.967Z,15.87
2019-05-07T21:10:56.279Z,15.83
2019-05-07T21:13:31.772Z,15.78
2019-05-07T21:16:03.054Z,15.79
2019-05-07T21:18:33.833Z,15.69
2019-05-07T21:21:05.272Z,15.67
2019-05-07T21:23:36.616Z,15.65
2019-05-07T21:26:07.969Z,15.68
2019-05-07T21:28:39.491Z,15.68
2019-05-07T21:31:11.957Z,15.61
2019-05-07T21:33:44.509Z,15.56
2019-05-07T21:36:15.946Z,15.62
2019-05-07T21:38:47.532Z,15.60
2019-05-07T21:41:19.020Z,15.69
2019-05-07T21:43:52.614Z,15.75
2019-05-07T21:46:23.471Z,15.80
2019-05-07T21:48:54.933Z,15.83
2019-05-07T21:51:26.320Z,15.82
2019-05-07T21:54:08.392Z,15.88
2019-05-07T21:56:54.553Z,15.79
2019-05-07T21:59:33.526Z,15.84
2019-05-07T22:02:08.387Z,15.90
2019-05-07T22:04:41.717Z,15.87
2019-05-07T22:07:12.851Z,15.94
2019-05-07T22:09:44.592Z,15.98
2019-05-07T22:12:16.062Z,15.91
2019-05-07T22:14:47.521Z,16.02
2019-05-07T22:17:18.933Z,15.98
2019-05-07T22:19:52.525Z,15.95
2019-05-07T22:22:24.313Z,15.88
2019-05-07T22:24:56.031Z,15.84
2019-05-07T22:27:28.931Z,15.86
2019-05-07T22:30:02.302Z,15.76
2019-05-07T22:32:36.592Z,15.67
2019-05-07T22:35:27.816Z,15.59
2019-05-07T22:38:06.935Z,15.57
2019-05-07T22:40:40.201Z,15.56
2019-05-07T22:43:13.093Z,15.54
2019-05-07T22:45:44.851Z,15.52
2019-05-07T22:48:16.118Z,15.52
2019-05-07T22:50:47.509Z,15.53
2019-05-07T22:53:21.953Z,15.53
2019-05-07T22:55:53.077Z,15.55
2019-05-07T22:58:32.425Z,15.56
2019-05-07T23:01:08.000Z,15.58
2019-05-07T23:03:39.289Z,15.57
2019-05-07T23:06:12.278Z,15.61
2019-05-07T23:08:43.933Z,15.64
2019-05-07T23:11:15.637Z,15.76
2019-05-07T23:13:46.932Z,15.87
2019-05-07T23:16:18.303Z,15.89
2019-05-07T23:18:49.659Z,15.88
2019-05-07T23:21:24.259Z,15.93
2019-05-07T23:23:54.317Z,15.71
2019-05-07T23:26:25.922Z,15.84
2019-05-07T23:28:57.294Z,15.76
2019-05-07T23:31:28.765Z,15.78
2019-05-07T23:34:01.948Z,15.79
2019-05-07T23:36:33.671Z,15.77
2019-05-07T23:39:06.882Z,15.82
2019-05-07T23:41:43.056Z,15.75
2019-05-07T23:44:16.160Z,15.77
2019-05-07T23:46:47.617Z,15.73
2019-05-07T23:49:18.897Z,15.81
2019-05-07T23:51:52.810Z,15.80
2019-05-07T23:54:23.850Z,15.83
2019-05-07T23:57:06.050Z,15.90
2019-05-07T23:59:28.429Z,15.89
